createdAt,value
2022-11-27T00:03:04.272Z,2.11
2022-11-27T00:07:57.837Z,1.51
2022-11-27T00:12:52.602Z,2.28
2022-11-27T00:17:46.262Z,1.74
2022-11-27T00:22:40.643Z,1.83
2022-11-27T00:27:33.936Z,2.22
2022-11-27T00:32:28.581Z,2.18
2022-11-27T00:37:21.865Z,2.15
2022-11-27T00:42:15.216Z,2.57
2022-11-27T00:47:08.579Z,2.45
2022-11-27T00:52:03.377Z,2.09
2022-11-27T00:56:56.960Z,2.11
2022-11-27T01:01:50.449Z,2.71
2022-11-27T01:06:48.382Z,2.53
2022-11-27T01:11:44.019Z,2.82
2022-11-27T01:16:42.673Z,1.95
2022-11-27T01:21:36.906Z,2.56
2022-11-27T01:26:30.295Z,2.88
2022-11-27T01:31:26.760Z,2.93
2022-11-27T01:36:20.187Z,2.27
2022-11-27T01:41:16.528Z,2.66
2022-11-27T01:46:23.477Z,3.14
2022-11-27T01:51:18.330Z,2.80
2022-11-27T01:56:12.259Z,3.14
2022-11-27T02:01:07.895Z,1.75
2022-11-27T02:06:01.503Z,1.72
2022-11-27T02:11:03.772Z,3.12
2022-11-27T02:16:16.409Z,1.92
2022-11-27T02:21:18.317Z,2.65
2022-11-27T02:26:38.837Z,3.13
2022-11-27T02:31:40.197Z,2.91
2022-11-27T02:36:36.703Z,3.06
2022-11-27T02:41:34.692Z,3.09
2022-11-27T02:46:29.963Z,1.65
2022-11-27T02:51:29.273Z,2.31
2022-11-27T02:56:27.417Z,3.19
2022-11-27T03:01:23.597Z,2.43
2022-11-27T03:06:25.131Z,2.16
2022-11-27T03:11:20.010Z,2.93
2022-11-27T03:16:21.909Z,1.72
2022-11-27T03:21:24.280Z,3.26
2022-11-27T03:26:17.731Z,2.66
2022-11-27T03:31:12.981Z,2.02
2022-11-27T03:36:13.808Z,2.09
2022-11-27T03:41:12.639Z,3.33
2022-11-27T03:46:12.414Z,3.16
2022-11-27T03:51:18.745Z,2.67
2022-11-27T03:56:18.411Z,3.41
2022-11-27T04:01:15.837Z,3.44
2022-11-27T04:06:11.896Z,2.59
2022-11-27T04:11:05.475Z,2.56
2022-11-27T04:16:02.481Z,2.86
2022-11-27T04:20:59.128Z,2.00
2022-11-27T04:25:53.852Z,2.71
2022-11-27T04:30:51.972Z,3.22
2022-11-27T04:35:45.387Z,3.23
2022-11-27T04:40:38.826Z,3.34
2022-11-27T04:45:33.733Z,3.49
2022-11-27T04:50:27.184Z,3.49
2022-11-27T04:55:20.533Z,3.52
2022-11-27T05:00:14.841Z,2.50
2022-11-27T05:05:10.167Z,2.30
2022-11-27T05:10:03.642Z,3.56
2022-11-27T05:14:59.629Z,2.21
2022-11-27T05:19:56.441Z,3.16
2022-11-27T05:24:50.994Z,2.00
2022-11-27T05:29:44.228Z,3.55
2022-11-27T05:34:37.635Z,3.50
2022-11-27T05:39:30.967Z,3.34
2022-11-27T05:44:25.897Z,2.94
2022-11-27T05:49:21.376Z,3.50
2022-11-27T05:54:14.626Z,3.51
2022-11-27T05:59:10.981Z,3.50
2022-11-27T06:04:06.914Z,3.51
2022-11-27T06:09:05.693Z,3.25
2022-11-27T06:14:03.666Z,3.56
2022-11-27T06:18:57.349Z,2.22
2022-11-27T06:23:55.247Z,2.42
2022-11-27T06:28:49.906Z,3.82
2022-11-27T06:33:43.536Z,3.91
2022-11-27T06:38:38.447Z,3.29
2022-11-27T06:43:33.682Z,3.98
2022-11-27T06:48:27.156Z,3.12
2022-11-27T06:53:20.870Z,3.15
2022-11-27T06:58:14.195Z,4.11
2022-11-27T07:03:08.813Z,3.64
2022-11-27T07:08:02.151Z,4.14
2022-11-27T07:12:55.425Z,3.77
2022-11-27T07:17:50.542Z,3.87
2022-11-27T07:22:45.053Z,4.22
2022-11-27T07:27:38.255Z,4.18
2022-11-27T07:32:32.274Z,4.52
2022-11-27T07:37:25.593Z,4.32
2022-11-27T07:47:33.402Z,4.24
2022-11-27T07:52:26.620Z,4.54
2022-11-27T07:57:21.105Z,3.28
2022-11-27T08:02:14.411Z,4.60
2022-11-27T08:07:07.774Z,4.10
2022-11-27T08:12:03.998Z,4.76
2022-11-27T08:16:59.597Z,4.83
2022-11-27T08:21:52.832Z,4.89
2022-11-27T08:26:46.095Z,4.95
2022-11-27T08:31:39.350Z,4.96
2022-11-27T08:36:33.858Z,4.94
2022-11-27T08:41:27.021Z,4.77
2022-11-27T08:46:20.195Z,5.00
2022-11-27T08:51:15.592Z,5.00
2022-11-27T08:56:15.195Z,5.23
2022-11-27T09:01:10.191Z,5.33
2022-11-27T09:06:03.433Z,4.90
2022-11-27T09:11:00.755Z,5.40
2022-11-27T09:15:56.632Z,5.47
2022-11-27T09:20:56.977Z,5.29
2022-11-27T09:25:50.303Z,5.43
2022-11-27T09:30:43.423Z,5.69
2022-11-27T09:35:42.342Z,4.67
2022-11-27T09:40:36.107Z,5.54
2022-11-27T09:45:29.632Z,5.79
2022-11-27T09:50:27.088Z,5.84
2022-11-27T09:55:26.340Z,5.77
2022-11-27T10:00:21.801Z,5.79
2022-11-27T10:05:22.206Z,6.07
2022-11-27T10:10:35.895Z,6.13
2022-11-27T10:15:39.273Z,6.14
2022-11-27T10:20:40.077Z,5.90
2022-11-27T10:25:42.621Z,6.17
2022-11-27T10:30:40.798Z,6.20
2022-11-27T10:35:34.250Z,6.21
2022-11-27T10:40:32.916Z,5.94
2022-11-27T10:45:35.017Z,5.89
2022-11-27T10:50:28.254Z,6.04
2022-11-27T10:55:35.348Z,6.12
2022-11-27T11:00:30.008Z,6.28
2022-11-27T11:05:41.002Z,6.36
2022-11-27T11:10:39.995Z,6.50
2022-11-27T11:15:34.979Z,6.28
2022-11-27T11:20:28.378Z,6.52
2022-11-27T11:25:23.090Z,6.63
2022-11-27T11:30:23.778Z,6.32
2022-11-27T11:35:29.842Z,6.24
2022-11-27T11:40:27.991Z,6.61
2022-11-27T11:45:23.225Z,6.67
2022-11-27T11:50:22.723Z,6.67
2022-11-27T11:55:21.692Z,6.68
2022-11-27T12:00:16.966Z,5.67
2022-11-27T12:05:22.504Z,6.38
2022-11-27T12:10:25.996Z,6.78
2022-11-27T12:15:27.517Z,6.77
2022-11-27T12:20:25.478Z,6.46
2022-11-27T12:25:29.257Z,6.77
2022-11-27T12:30:28.393Z,6.64
2022-11-27T12:35:32.826Z,6.40
2022-11-27T12:40:40.910Z,6.74
2022-11-27T12:45:40.194Z,6.77
2022-11-27T12:50:40.577Z,6.79
2022-11-27T12:55:35.978Z,6.80
2022-11-27T13:00:33.300Z,6.69
2022-11-27T13:05:29.341Z,6.52
2022-11-27T13:10:28.304Z,6.83
2022-11-27T13:15:28.924Z,6.59
2022-11-27T13:20:25.038Z,6.87
2022-11-27T13:25:18.492Z,6.81
2022-11-27T13:30:21.633Z,6.72
2022-11-27T13:35:27.979Z,6.83
2022-11-27T13:40:25.036Z,6.80
2022-11-27T13:45:27.220Z,6.55
2022-11-27T13:50:28.170Z,6.52
2022-11-27T13:55:26.672Z,6.74
2022-11-27T14:00:20.595Z,5.82
2022-11-27T14:05:19.738Z,6.64
2022-11-27T14:10:17.556Z,6.66
2022-11-27T14:15:25.496Z,6.41
2022-11-27T14:20:31.070Z,6.61
2022-11-27T14:25:30.366Z,6.57
2022-11-27T14:30:45.728Z,6.59
2022-11-27T14:36:09.206Z,6.14
2022-11-27T14:41:40.548Z,5.11
2022-11-27T14:46:42.711Z,6.03
2022-11-27T14:51:39.909Z,5.21
2022-11-27T14:57:01.470Z,5.54
2022-11-27T15:02:38.611Z,4.78
2022-11-27T15:08:30.081Z,6.45
2022-11-27T15:13:58.914Z,5.12
2022-11-27T15:18:56.503Z,5.91
2022-11-27T15:24:05.703Z,6.05
2022-11-27T15:29:00.629Z,5.47
2022-11-27T15:34:02.537Z,6.22
2022-11-27T15:39:16.385Z,6.17
2022-11-27T15:44:11.399Z,6.35
2022-11-27T15:49:04.842Z,5.41
2022-11-27T15:53:58.255Z,6.04
2022-11-27T15:58:51.506Z,6.29
2022-11-27T16:03:46.492Z,6.28
2022-11-27T16:08:54.358Z,5.68
2022-11-27T16:13:50.302Z,5.61
2022-11-27T16:18:47.080Z,6.24
2022-11-27T16:23:41.257Z,6.25
2022-11-27T16:28:38.057Z,6.08
2022-11-27T16:33:43.126Z,5.48
2022-11-27T16:38:39.766Z,5.79
2022-11-27T16:43:41.499Z,4.80
2022-11-27T16:48:45.490Z,4.74
2022-11-27T16:53:44.270Z,4.88
2022-11-27T16:58:42.479Z,6.28
2022-11-27T17:03:37.710Z,6.25
2022-11-27T17:08:31.144Z,5.92
2022-11-27T17:13:27.147Z,6.27
2022-11-27T17:18:27.314Z,5.76
2022-11-27T17:23:24.818Z,5.25
2022-11-27T17:28:21.497Z,6.35
2022-11-27T17:33:18.889Z,5.66
2022-11-27T17:38:13.525Z,4.96
2022-11-27T17:43:06.911Z,4.79
2022-11-27T17:48:06.322Z,6.34
2022-11-27T17:53:01.227Z,5.97
2022-11-27T17:57:54.947Z,6.21
2022-11-27T18:02:52.386Z,5.47
2022-11-27T18:07:47.777Z,6.34
2022-11-27T18:12:45.795Z,5.89
2022-11-27T18:17:40.553Z,4.63
2022-11-27T18:22:38.719Z,5.09
2022-11-27T18:27:33.302Z,5.48
2022-11-27T18:32:28.132Z,6.28
2022-11-27T18:37:21.705Z,4.94
2022-11-27T18:42:17.793Z,5.58
2022-11-27T18:47:14.044Z,6.24
2022-11-27T18:52:10.548Z,5.73
2022-11-27T18:57:07.284Z,6.19
2022-11-27T19:02:05.727Z,5.35
2022-11-27T19:07:02.870Z,5.42
2022-11-27T19:11:59.377Z,4.97
2022-11-27T19:16:55.565Z,5.89
2022-11-27T19:21:54.448Z,5.56
2022-11-27T19:27:07.504Z,6.47
2022-11-27T19:32:03.601Z,5.92
2022-11-27T19:37:07.281Z,5.72
2022-11-27T19:42:01.104Z,5.51
2022-11-27T19:47:04.543Z,5.17
2022-11-27T19:52:04.273Z,5.26
2022-11-27T19:57:05.400Z,5.76
2022-11-27T20:02:01.078Z,6.46
2022-11-27T20:06:57.588Z,5.09
2022-11-27T20:11:52.784Z,6.28
2022-11-27T20:16:46.469Z,5.42
2022-11-27T20:21:43.254Z,4.95
2022-11-27T20:26:44.291Z,6.15
2022-11-27T20:31:39.450Z,5.66
2022-11-27T20:36:40.374Z,4.84
2022-11-27T20:41:40.834Z,5.74
2022-11-27T20:46:35.943Z,4.93
2022-11-27T20:51:33.931Z,6.12
2022-11-27T20:56:41.071Z,5.30
2022-11-27T21:01:38.334Z,6.16
2022-11-27T21:06:36.179Z,5.39
2022-11-27T21:11:34.018Z,6.34
2022-11-27T21:16:32.536Z,6.28
2022-11-27T21:21:26.904Z,5.78
2022-11-27T21:26:20.533Z,6.42
2022-11-27T21:31:20.020Z,6.43
2022-11-27T21:36:15.940Z,5.52
2022-11-27T21:41:14.166Z,5.64
2022-11-27T21:46:08.682Z,5.49
2022-11-27T21:51:02.736Z,5.43
2022-11-27T21:55:57.873Z,6.47
2022-11-27T22:00:54.563Z,5.38
2022-11-27T22:05:49.630Z,6.05
2022-11-27T22:10:43.217Z,5.29
2022-11-27T22:15:39.053Z,4.85
2022-11-27T22:20:43.086Z,5.64
2022-11-27T22:25:42.273Z,6.47
2022-11-27T22:30:40.848Z,5.20
2022-11-27T22:35:47.496Z,6.11
2022-11-27T22:40:43.684Z,6.34
2022-11-27T22:45:48.015Z,5.26
2022-11-27T22:50:44.408Z,6.26
2022-11-27T22:55:41.128Z,5.20
2022-11-27T23:00:51.064Z,6.47
2022-11-27T23:05:47.723Z,5.16
2022-11-27T23:10:47.023Z,6.48
2022-11-27T23:15:43.839Z,5.55
2022-11-27T23:20:45.364Z,6.01
2022-11-27T23:25:39.710Z,6.23
2022-11-27T23:30:34.411Z,5.14
2022-11-27T23:35:30.192Z,6.47
2022-11-27T23:40:25.734Z,6.47
2022-11-27T23:45:19.399Z,5.97
2022-11-27T23:50:13.312Z,5.12
2022-11-27T23:55:10.212Z,6.48
